createdAt,value
2023-02-03T00:00:01.701Z,100727.03
2023-02-03T00:02:29.364Z,100717.44
2023-02-03T00:04:57.292Z,100712.19
2023-02-03T00:07:24.960Z,100714.81
2023-02-03T00:09:52.785Z,100707.81
2023-02-03T00:12:20.435Z,100691.22
2023-02-03T00:14:49.610Z,100698.19
2023-02-03T00:17:17.435Z,100675.47
2023-02-03T00:19:45.268Z,100681.59
2023-02-03T00:22:13.473Z,100678.97
2023-02-03T00:24:41.137Z,100679.84
2023-02-03T00:27:08.970Z,100684.22
2023-02-03T00:29:36.661Z,100684.25
2023-02-03T00:32:06.497Z,100687.72
2023-02-03T00:34:34.383Z,100676.38
2023-02-03T00:37:02.619Z,100674.63
2023-02-03T00:39:30.301Z,100671.13
2023-02-03T00:41:58.105Z,100677.25
2023-02-03T00:44:25.907Z,100648.28
2023-02-03T00:46:54.652Z,100664.16
2023-02-03T00:49:23.686Z,100663.28
2023-02-03T00:51:52.072Z,100670.31
2023-02-03T00:54:19.772Z,100677.31
2023-02-03T00:56:47.602Z,100685.16
2023-02-03T00:59:15.348Z,100669.41
2023-02-03T01:01:43.104Z,100669.41
2023-02-03T01:04:10.801Z,100674.66
2023-02-03T01:06:41.204Z,100672.03
2023-02-03T01:09:08.902Z,100682.53
2023-02-03T01:11:36.822Z,100700.84
2023-02-03T01:14:04.485Z,100704.34
2023-02-03T01:16:36.226Z,100709.56
2023-02-03T01:19:03.990Z,100720.06
2023-02-03T01:24:09.700Z,100742.78
2023-02-03T01:26:37.618Z,100705.16
2023-02-03T01:29:05.403Z,100722.69
2023-02-03T01:31:34.922Z,100717.47
2023-02-03T01:34:02.972Z,100715.72
2023-02-03T01:36:31.499Z,100724.44
2023-02-03T01:38:59.335Z,100720.09
2023-02-03T01:41:29.719Z,100705.22
2023-02-03T01:43:58.405Z,100720.97
2023-02-03T01:46:28.742Z,100723.59
2023-02-03T01:49:02.891Z,100713.06
2023-02-03T01:51:31.031Z,100673.59
2023-02-03T01:54:00.533Z,100727.09
2023-02-03T01:56:31.231Z,100602.66
2023-02-03T01:59:00.940Z,100723.59
2023-02-03T02:01:29.352Z,100629.03
2023-02-03T02:03:57.887Z,100689.47
2023-02-03T02:06:25.785Z,100701.72
2023-02-03T02:08:54.279Z,100702.63
2023-02-03T02:11:22.392Z,100710.50
2023-02-03T02:13:52.321Z,100723.56
2023-02-03T02:16:23.343Z,100728.84
2023-02-03T02:18:58.505Z,100717.47
2023-02-03T02:21:54.978Z,100704.41
2023-02-03T02:24:53.247Z,100669.38
2023-02-03T02:27:31.531Z,100670.28
2023-02-03T02:30:37.932Z,100671.22
2023-02-03T02:33:12.006Z,100676.41
2023-02-03T02:35:58.527Z,100665.09
2023-02-03T02:38:33.953Z,100649.31
2023-02-03T02:41:04.831Z,100655.34
2023-02-03T02:43:37.177Z,100674.69
2023-02-03T02:46:07.372Z,100668.56
2023-02-03T02:48:37.478Z,100669.47
2023-02-03T02:51:06.158Z,100665.09
2023-02-03T02:53:54.427Z,100677.34
2023-02-03T02:56:22.213Z,100678.19
2023-02-03T02:58:50.728Z,100678.13
2023-02-03T03:01:19.388Z,100643.97
2023-02-03T03:03:48.701Z,100666.75
2023-02-03T03:06:19.098Z,100670.31
2023-02-03T03:08:49.254Z,100588.13
2023-02-03T03:11:17.817Z,100588.13
2023-02-03T03:13:47.864Z,100644.13
2023-02-03T03:16:15.973Z,100665.94
2023-02-03T03:18:44.791Z,100636.16
2023-02-03T03:21:15.561Z,100660.63
2023-02-03T03:23:43.858Z,100681.63
2023-02-03T03:26:14.049Z,100700.84
2023-02-03T03:28:45.278Z,100696.50
2023-02-03T03:31:13.279Z,100690.38
2023-02-03T03:33:41.127Z,100693.88
2023-02-03T03:36:14.197Z,100692.16
2023-02-03T03:38:43.356Z,100643.75
2023-02-03T03:41:14.360Z,100641.41
2023-02-03T03:43:43.487Z,100672.97
2023-02-03T03:46:13.523Z,100682.56
2023-02-03T03:48:42.566Z,100667.72
2023-02-03T03:51:12.111Z,100618.59
2023-02-03T03:53:42.245Z,100681.69
2023-02-03T03:56:14.119Z,100682.56
2023-02-03T03:58:41.871Z,100644.03
2023-02-03T04:01:09.975Z,100675.53
2023-02-03T04:03:39.945Z,100632.66
2023-02-03T04:06:09.794Z,100658.13
2023-02-03T04:08:39.308Z,100659.84
2023-02-03T04:11:08.683Z,100659.84
2023-02-03T04:13:36.435Z,100660.72
2023-02-03T04:16:04.302Z,100655.44
2023-02-03T04:18:32.142Z,100661.59
2023-02-03T04:20:59.886Z,100664.13
2023-02-03T04:23:27.855Z,100664.22
2023-02-03T04:25:55.647Z,100663.34
2023-02-03T04:28:25.015Z,100667.69
2023-02-03T04:30:52.756Z,100651.09
2023-02-03T04:33:20.618Z,100657.22
2023-02-03T04:35:48.305Z,100661.59
2023-02-03T04:38:16.342Z,100654.59
2023-02-03T04:40:45.566Z,100668.59
2023-02-03T04:43:14.244Z,100659.88
2023-02-03T04:45:43.433Z,100659.84
2023-02-03T04:48:12.375Z,100654.63
2023-02-03T04:50:40.202Z,100614.31
2023-02-03T04:53:09.277Z,100660.75
2023-02-03T04:55:37.031Z,100648.50
2023-02-03T04:58:04.928Z,100618.72
2023-02-03T05:00:32.906Z,100645.91
2023-02-03T05:03:11.882Z,100614.38
2023-02-03T05:05:39.799Z,100576.72
2023-02-03T05:08:08.254Z,100640.66
2023-02-03T05:10:39.527Z,100631.03
2023-02-03T05:13:07.354Z,100632.81
2023-02-03T05:15:35.157Z,100638.91
2023-02-03T05:18:03.675Z,100618.78
2023-02-03T05:20:32.906Z,100549.59
2023-02-03T05:23:01.314Z,100590.78
2023-02-03T05:25:30.691Z,100618.84
2023-02-03T05:28:00.279Z,100622.31
2023-02-03T05:30:29.634Z,100638.03
2023-02-03T05:32:57.511Z,100613.56
2023-02-03T05:35:26.092Z,100623.19
2023-02-03T05:37:55.304Z,100601.25
2023-02-03T05:40:40.571Z,100625.78
2023-02-03T05:43:09.071Z,100635.41
2023-02-03T05:45:36.993Z,100643.25
2023-02-03T05:48:05.114Z,100610.03
2023-02-03T05:50:33.560Z,100624.03
2023-02-03T05:53:02.961Z,100615.31
2023-02-03T05:55:32.152Z,100625.75
2023-02-03T05:58:01.254Z,100644.16
2023-02-03T06:00:44.299Z,100643.28
2023-02-03T06:03:42.671Z,100596.03
2023-02-03T06:06:12.194Z,100608.25
2023-02-03T06:08:46.876Z,100623.13
2023-02-03T06:11:18.334Z,100638.91
2023-02-03T06:13:46.264Z,100656.38
2023-02-03T06:16:14.737Z,100638.00
2023-02-03T06:18:42.971Z,100628.41
2023-02-03T06:21:11.236Z,100642.41
2023-02-03T06:23:39.156Z,100646.78
2023-02-03T06:26:08.374Z,100653.78
2023-02-03T06:28:38.133Z,100626.66
2023-02-03T06:31:06.485Z,100614.31
2023-02-03T06:33:34.498Z,100606.50
2023-02-03T06:36:02.584Z,100634.53
2023-02-03T06:38:30.379Z,100321.25
2023-02-03T06:40:59.183Z,100637.16
2023-02-03T06:43:28.446Z,100641.50
2023-02-03T06:45:56.425Z,100650.25
2023-02-03T06:48:24.326Z,100618.72
2023-02-03T06:50:52.294Z,100611.75
2023-02-03T06:53:20.360Z,100619.63
2023-02-03T06:55:48.924Z,100642.41
2023-02-03T06:58:17.083Z,100646.78
2023-02-03T07:00:46.338Z,100644.16
2023-02-03T07:03:14.206Z,100657.25
2023-02-03T07:05:42.021Z,100645.91
2023-02-03T07:08:09.873Z,100610.91
2023-02-03T07:10:37.652Z,100644.16
2023-02-03T07:13:06.038Z,100641.56
2023-02-03T07:15:33.791Z,100656.41
2023-02-03T07:18:02.934Z,100656.41
2023-02-03T07:20:32.549Z,100653.78
2023-02-03T07:23:00.350Z,100658.19
2023-02-03T07:28:08.271Z,100673.03
2023-02-03T07:30:36.083Z,100661.69
2023-02-03T07:33:07.940Z,100626.66
2023-02-03T07:35:35.662Z,100634.56
2023-02-03T07:38:03.520Z,100640.72
2023-02-03T07:40:31.206Z,100637.16
2023-02-03T07:43:00.011Z,100638.09
2023-02-03T07:45:27.998Z,100648.59
2023-02-03T07:47:55.880Z,100625.84
2023-02-03T07:50:25.299Z,100608.31
2023-02-03T07:52:53.292Z,100638.09
2023-02-03T07:55:20.966Z,100637.25
2023-02-03T07:57:51.919Z,100643.34
2023-02-03T08:00:20.524Z,100645.94
2023-02-03T08:02:48.385Z,100642.41
2023-02-03T08:05:16.541Z,100662.56
2023-02-03T08:07:46.025Z,100624.06
2023-02-03T08:10:15.372Z,100664.31
2023-02-03T08:12:45.266Z,100677.44
2023-02-03T08:15:13.537Z,100682.69
2023-02-03T08:17:42.132Z,100687.06
2023-02-03T08:20:10.454Z,100679.19
2023-02-03T08:22:39.362Z,100676.56
2023-02-03T08:25:09.429Z,100671.31
2023-02-03T08:27:37.187Z,100693.19
2023-02-03T08:30:05.939Z,100675.69
2023-02-03T08:32:33.816Z,100681.84
2023-02-03T08:35:01.579Z,100692.38
2023-02-03T08:37:32.062Z,100681.00
2023-02-03T08:39:59.957Z,100679.25
2023-02-03T08:42:29.241Z,100587.28
2023-02-03T08:44:57.732Z,100656.44
2023-02-03T08:47:25.695Z,100681.84
2023-02-03T08:49:53.370Z,100675.72
2023-02-03T08:52:21.253Z,100681.81
2023-02-03T08:54:49.039Z,100672.22
2023-02-03T08:57:18.971Z,100692.31
2023-02-03T08:59:48.341Z,100692.28
2023-02-03T09:02:17.416Z,100687.84
2023-02-03T09:04:45.518Z,100635.31
2023-02-03T09:07:13.510Z,100721.97
2023-02-03T09:09:41.364Z,100703.59
2023-02-03T09:12:09.096Z,100672.06
2023-02-03T09:14:37.249Z,100708.84
2023-02-03T09:17:08.213Z,100673.84
2023-02-03T09:19:39.360Z,100699.22
2023-02-03T09:22:07.179Z,100697.50
2023-02-03T09:24:35.300Z,100695.72
2023-02-03T09:27:03.179Z,100699.25
2023-02-03T09:29:30.933Z,100694.81
2023-02-03T09:32:00.008Z,100703.59
2023-02-03T09:34:42.345Z,100647.50
2023-02-03T09:37:10.276Z,100698.34
2023-02-03T09:39:38.198Z,100721.03
2023-02-03T09:42:31.192Z,100664.13
2023-02-03T09:45:03.957Z,100651.91
2023-02-03T09:47:34.936Z,100689.53
2023-02-03T09:50:04.926Z,100675.50
2023-02-03T09:52:33.718Z,100672.84
2023-02-03T09:55:03.847Z,100693.06
2023-02-03T09:57:33.494Z,100676.41
2023-02-03T10:00:03.391Z,100672.94
2023-02-03T10:02:39.880Z,100661.53
2023-02-03T10:05:16.673Z,100710.56
2023-02-03T10:07:50.247Z,100670.22
2023-02-03T10:10:19.622Z,100695.69
2023-02-03T10:12:57.188Z,100575.78
2023-02-03T10:15:50.738Z,100638.81
2023-02-03T10:18:20.149Z,100668.56
2023-02-03T10:20:51.245Z,100701.84
2023-02-03T10:23:21.273Z,100695.75
2023-02-03T10:25:50.711Z,100651.09
2023-02-03T10:28:19.677Z,100680.88
2023-02-03T10:30:49.714Z,100680.94
2023-02-03T10:33:18.469Z,100657.28
2023-02-03T10:35:52.987Z,100695.75
2023-02-03T10:38:26.426Z,100681.72
2023-02-03T10:40:54.488Z,100708.91
2023-02-03T10:43:40.613Z,100710.63
2023-02-03T10:46:08.335Z,100689.66
2023-02-03T10:48:36.211Z,100703.69
2023-02-03T10:51:05.558Z,100701.94
2023-02-03T10:53:35.506Z,100701.03
2023-02-03T10:56:05.048Z,100715.03
2023-02-03T10:58:34.626Z,100702.78
2023-02-03T11:01:08.162Z,100704.53
2023-02-03T11:03:36.059Z,100706.31
2023-02-03T11:06:10.508Z,100692.31
2023-02-03T11:08:39.636Z,100694.06
2023-02-03T11:11:08.385Z,100694.09
2023-02-03T11:13:36.349Z,100664.28
2023-02-03T11:16:05.225Z,100649.41
2023-02-03T11:18:41.364Z,100694.97
2023-02-03T11:21:12.390Z,100684.44
2023-02-03T11:23:46.050Z,100695.91
2023-02-03T11:26:14.531Z,100645.97
2023-02-03T11:28:43.877Z,100702.00
2023-02-03T11:31:29.875Z,100700.25
2023-02-03T11:33:59.475Z,100682.66
2023-02-03T11:36:29.679Z,100727.38
2023-02-03T11:39:11.052Z,100718.63
2023-02-03T11:41:39.420Z,100706.38
2023-02-03T11:44:23.026Z,100720.38
2023-02-03T11:46:52.657Z,100671.28
2023-02-03T11:49:47.914Z,100721.22
2023-02-03T11:52:33.519Z,100716.91
2023-02-03T11:55:04.923Z,100718.63
2023-02-03T11:57:37.595Z,100716.03
2023-02-03T12:00:29.057Z,100712.53
2023-02-03T12:03:07.556Z,100707.25
2023-02-03T12:05:56.400Z,100705.50
2023-02-03T12:08:36.543Z,100666.06
2023-02-03T12:11:10.233Z,100714.28
2023-02-03T12:13:46.191Z,100698.44
2023-02-03T12:16:27.900Z,100724.72
2023-02-03T12:19:01.199Z,100686.19
2023-02-03T12:21:38.086Z,100716.00
2023-02-03T12:24:10.669Z,100674.84
2023-02-03T12:26:42.460Z,100709.06
2023-02-03T12:29:12.053Z,100708.19
2023-02-03T12:31:40.871Z,100694.13
2023-02-03T12:34:14.721Z,100704.66
2023-02-03T12:36:43.616Z,100706.41
2023-02-03T12:39:17.134Z,100720.41
2023-02-03T12:41:47.369Z,100729.16
2023-02-03T12:44:17.555Z,100720.44
2023-02-03T12:46:46.126Z,100702.06
2023-02-03T12:49:16.262Z,100711.69
2023-02-03T12:51:46.394Z,100707.34
2023-02-03T12:54:24.575Z,100704.72
2023-02-03T12:56:52.493Z,100713.47
2023-02-03T12:59:23.018Z,100709.97
2023-02-03T13:01:53.634Z,100727.47
2023-02-03T13:04:27.125Z,100687.19
2023-02-03T13:06:57.951Z,100722.22
2023-02-03T13:09:29.968Z,100702.13
2023-02-03T13:12:00.183Z,100695.13
2023-02-03T13:14:29.745Z,100696.88
2023-02-03T13:16:59.947Z,100710.88
2023-02-03T13:19:29.315Z,100722.25
2023-02-03T13:21:57.057Z,100726.63
2023-02-03T13:24:26.030Z,100726.63
2023-02-03T13:27:03.922Z,100708.25
2023-02-03T13:29:43.660Z,100716.13
2023-02-03T13:32:21.758Z,100715.25
2023-02-03T13:35:05.833Z,100690.75
2023-02-03T13:37:43.764Z,100723.16
2023-02-03T13:40:17.520Z,100686.38
2023-02-03T13:42:47.771Z,100707.41
2023-02-03T13:45:20.111Z,100653.13
2023-02-03T13:47:48.153Z,100699.53
2023-02-03T13:50:20.691Z,100706.50
2023-02-03T13:52:56.279Z,100668.88
2023-02-03T13:55:34.766Z,100648.75
2023-02-03T13:58:05.133Z,100710.00
2023-02-03T14:01:04.834Z,100717.00
2023-02-03T14:03:43.668Z,100666.25
2023-02-03T14:07:01.906Z,100748.53
2023-02-03T14:09:42.618Z,100729.28
2023-02-03T14:12:55.803Z,100719.66
2023-02-03T14:15:37.022Z,100728.38
2023-02-03T14:18:32.273Z,100728.41
2023-02-03T14:21:22.172Z,100682.88
2023-02-03T14:24:09.684Z,100723.16
2023-02-03T14:26:41.208Z,100718.75
2023-02-03T14:29:09.996Z,100676.75
2023-02-03T14:32:01.034Z,100668.88
2023-02-03T14:34:32.865Z,100703.00
2023-02-03T14:37:11.454Z,100725.78
2023-02-03T14:40:01.309Z,100731.03
2023-02-03T14:42:45.555Z,100708.25
2023-02-03T14:45:19.545Z,100708.25
2023-02-03T14:47:56.499Z,100739.75
2023-02-03T14:50:35.224Z,100757.28
2023-02-03T14:53:17.663Z,100752.91
2023-02-03T14:55:50.859Z,100733.56
2023-02-03T14:58:24.421Z,100783.50
2023-02-03T15:00:54.664Z,100787.00
2023-02-03T15:03:30.179Z,100807.94
2023-02-03T15:05:59.957Z,100809.66
2023-02-03T15:08:33.172Z,100817.53
2023-02-03T15:11:01.255Z,100814.88
2023-02-03T15:13:30.261Z,100799.91
2023-02-03T15:15:59.048Z,100791.00
2023-02-03T15:18:31.799Z,100859.25
2023-02-03T15:20:59.736Z,100828.72
2023-02-03T15:23:43.215Z,100840.06
2023-02-03T15:26:13.115Z,100840.06
2023-02-03T15:28:40.936Z,100840.00
2023-02-03T15:31:11.174Z,100846.13
2023-02-03T15:33:40.533Z,100863.66
2023-02-03T15:36:10.142Z,100858.38
2023-02-03T15:38:39.748Z,100853.16
2023-02-03T15:41:08.280Z,100852.25
2023-02-03T15:43:38.329Z,100828.56
2023-02-03T15:46:07.564Z,100866.31
2023-02-03T15:48:38.253Z,100834.72
2023-02-03T15:51:10.968Z,100825.91
2023-02-03T15:53:47.775Z,100855.84
2023-02-03T15:56:21.438Z,100843.50
2023-02-03T15:58:49.704Z,100855.81
2023-02-03T16:01:18.227Z,100853.19
2023-02-03T16:03:47.477Z,100858.38
2023-02-03T16:06:19.263Z,100855.75
2023-02-03T16:08:48.256Z,100862.81
2023-02-03T16:11:24.930Z,100858.38
2023-02-03T16:13:52.688Z,100875.06
2023-02-03T16:16:22.833Z,100857.44
2023-02-03T16:18:52.522Z,100891.66
2023-02-03T16:21:29.943Z,100873.22
2023-02-03T16:23:58.075Z,100876.72
2023-02-03T16:26:26.307Z,100855.63
2023-02-03T16:29:30.200Z,100893.38
2023-02-03T16:32:16.597Z,100894.19
2023-02-03T16:35:02.176Z,100884.56
2023-02-03T16:37:50.044Z,100878.31
2023-02-03T16:40:38.692Z,100892.31
2023-02-03T16:43:23.950Z,100882.69
2023-02-03T16:46:12.529Z,100901.94
2023-02-03T16:48:58.309Z,100917.75
2023-02-03T16:51:25.974Z,100917.72
2023-02-03T16:53:55.059Z,100919.44
2023-02-03T16:56:23.119Z,100936.97
2023-02-03T16:58:50.903Z,100937.00
2023-02-03T17:01:18.599Z,100942.25
2023-02-03T17:03:46.841Z,100941.38
2023-02-03T17:06:14.978Z,100840.47
2023-02-03T17:08:43.795Z,100938.75
2023-02-03T17:11:16.388Z,100927.28
2023-02-03T17:13:45.200Z,100906.25
2023-02-03T17:16:13.945Z,100938.72
2023-02-03T17:18:41.786Z,100948.34
2023-02-03T17:21:10.621Z,100959.63
2023-02-03T17:23:38.616Z,100918.41
2023-02-03T17:26:06.532Z,100948.31
2023-02-03T17:28:35.939Z,100951.78
2023-02-03T17:31:05.841Z,100953.53
2023-02-03T17:33:33.924Z,100947.34
2023-02-03T17:36:03.568Z,100952.63
2023-02-03T17:38:31.387Z,100942.13
2023-02-03T17:54:52.493Z,100743.41
2023-02-03T17:57:21.177Z,100994.66
2023-02-03T17:59:56.643Z,101026.72
2023-02-03T18:02:24.634Z,100991.78
2023-02-03T18:04:52.385Z,100972.56
2023-02-03T18:07:20.128Z,100985.69
2023-02-03T18:09:47.897Z,100984.75
2023-02-03T18:12:15.675Z,100989.06
2023-02-03T18:14:43.382Z,100933.78
2023-02-03T18:17:12.608Z,100984.56
2023-02-03T18:19:42.678Z,100996.78
2023-02-03T18:22:12.552Z,101002.84
2023-02-03T18:24:40.482Z,101007.19
2023-02-03T18:27:08.464Z,101015.88
2023-02-03T18:29:42.874Z,101007.97
2023-02-03T18:32:12.076Z,101014.06
2023-02-03T18:34:40.392Z,101011.34
2023-02-03T18:37:13.878Z,100957.69
2023-02-03T18:39:41.632Z,101012.16
2023-02-03T18:42:09.438Z,101021.75
2023-02-03T18:44:37.232Z,101025.09
2023-02-03T18:47:07.769Z,101023.13
2023-02-03T18:49:37.602Z,101047.69
2023-02-03T18:52:05.838Z,101038.97
2023-02-03T18:54:34.320Z,101027.53
2023-02-03T18:57:07.374Z,101037.97
2023-02-03T18:59:35.082Z,101038.78
2023-02-03T19:02:02.895Z,101037.91
2023-02-03T19:04:31.021Z,100991.16
2023-02-03T19:07:00.112Z,101033.47
2023-02-03T19:09:31.387Z,101019.28
2023-02-03T19:11:59.737Z,101019.28
2023-02-03T19:14:28.400Z,101034.22
2023-02-03T19:16:56.142Z,101035.09
2023-02-03T19:19:23.945Z,101034.19
2023-02-03T19:21:52.023Z,101035.06
2023-02-03T19:24:21.712Z,101039.28
2023-02-03T19:26:49.374Z,101041.00
2023-02-03T19:29:17.197Z,101058.53
2023-02-03T19:31:44.994Z,101064.72
2023-02-03T19:34:15.016Z,101062.09
2023-02-03T19:36:42.779Z,101074.31
2023-02-03T19:39:10.513Z,101087.41
2023-02-03T19:41:39.546Z,101073.34
2023-02-03T19:44:07.474Z,101090.97
2023-02-03T19:46:37.218Z,101097.09
2023-02-03T19:49:06.620Z,101101.50
2023-02-03T19:51:34.871Z,101105.00
2023-02-03T19:54:03.157Z,101100.59
2023-02-03T19:56:30.909Z,101094.44
2023-02-03T19:59:00.028Z,101086.59
2023-02-03T20:01:28.806Z,101094.50
2023-02-03T20:03:58.372Z,101109.41
2023-02-03T20:06:26.476Z,101109.34
2023-02-03T20:08:56.224Z,101122.50
2023-02-03T20:11:23.933Z,101126.88
2023-02-03T20:13:51.829Z,101119.88
2023-02-03T20:16:21.288Z,101116.34
2023-02-03T20:18:49.307Z,101112.91
2023-02-03T20:21:16.997Z,101117.22
2023-02-03T20:23:44.838Z,101115.50
2023-02-03T20:26:14.180Z,101120.75
2023-02-03T20:28:42.004Z,101133.75
2023-02-03T20:31:09.939Z,101122.47
2023-02-03T20:33:39.054Z,101123.28
2023-02-03T20:36:07.566Z,101130.34
2023-02-03T20:38:35.286Z,101136.53
2023-02-03T20:41:03.010Z,101129.56
2023-02-03T20:43:31.813Z,101127.88
2023-02-03T20:45:59.505Z,101132.25
2023-02-03T20:48:27.452Z,101134.88
2023-02-03T20:50:56.456Z,101133.94
2023-02-03T20:53:24.663Z,101144.56
2023-02-03T20:55:52.532Z,101148.88
2023-02-03T20:58:22.373Z,101141.88
2023-02-03T21:00:50.111Z,101148.88
2023-02-03T21:03:36.153Z,101154.97
2023-02-03T21:06:12.712Z,101140.00
2023-02-03T21:08:40.454Z,101151.38
2023-02-03T21:11:11.384Z,101166.06
2023-02-03T21:13:39.210Z,101167.13
2023-02-03T21:16:12.589Z,101170.59
2023-02-03T21:18:41.052Z,101155.78
2023-02-03T21:21:14.227Z,101157.50
2023-02-03T21:23:47.203Z,101164.53
2023-02-03T21:26:17.631Z,101161.03
2023-02-03T21:28:45.448Z,101162.75
2023-02-03T21:31:27.374Z,101119.63
2023-02-03T21:33:55.323Z,101173.25
2023-02-03T21:36:25.123Z,101175.00
2023-02-03T21:38:53.519Z,101171.47
2023-02-03T21:41:21.768Z,101172.31
2023-02-03T21:43:51.547Z,101167.06
2023-02-03T21:46:19.396Z,101172.34
2023-02-03T21:48:50.608Z,101182.75
2023-02-03T21:51:20.425Z,101175.66
2023-02-03T21:53:52.587Z,101185.34
2023-02-03T21:56:21.115Z,101180.97
2023-02-03T21:58:50.742Z,101178.31
2023-02-03T22:01:19.114Z,101185.38
2023-02-03T22:03:47.995Z,101188.81
2023-02-03T22:06:22.682Z,101197.53
2023-02-03T22:08:52.464Z,101195.81
2023-02-03T22:11:20.740Z,101189.69
2023-02-03T22:13:48.556Z,101190.53
2023-02-03T22:16:17.164Z,101190.56
2023-02-03T22:18:45.403Z,101194.88
2023-02-03T22:21:13.218Z,101185.19
2023-02-03T22:23:40.972Z,101204.53
2023-02-03T22:26:10.445Z,101210.66
2023-02-03T22:28:38.221Z,101202.81
2023-02-03T22:31:07.515Z,101175.41
2023-02-03T22:33:35.351Z,101210.63
2023-02-03T22:36:06.412Z,101218.50
2023-02-03T22:38:34.324Z,101212.41
2023-02-03T22:41:02.154Z,101222.88
2023-02-03T22:43:31.402Z,101209.56
2023-02-03T22:46:01.550Z,101240.31
2023-02-03T22:48:29.408Z,101238.53
2023-02-03T22:50:58.206Z,101236.00
2023-02-03T22:53:26.012Z,101236.00
2023-02-03T22:55:53.698Z,101243.03
2023-02-03T22:58:21.412Z,101246.56
2023-02-03T23:00:50.487Z,101250.94
2023-02-03T23:03:18.220Z,101251.78
2023-02-03T23:05:46.001Z,101256.22
2023-02-03T23:08:13.749Z,101252.72
2023-02-03T23:10:41.461Z,101256.25
2023-02-03T23:13:09.318Z,101261.53
2023-02-03T23:15:37.022Z,101257.03
2023-02-03T23:18:06.279Z,101264.03
2023-02-03T23:20:33.982Z,101262.25
2023-02-03T23:23:01.698Z,101270.13
2023-02-03T23:25:29.352Z,101272.78
2023-02-03T23:27:57.049Z,101272.81
2023-02-03T23:30:24.812Z,101275.34
2023-02-03T23:32:52.492Z,101278.00
2023-02-03T23:35:39.006Z,101278.00
2023-02-03T23:38:06.701Z,101284.09
2023-02-03T23:40:34.412Z,101291.09
2023-02-03T23:43:03.158Z,101286.72
2023-02-03T23:45:31.038Z,101279.69
2023-02-03T23:47:58.746Z,101291.09
2023-02-03T23:50:27.815Z,101298.00
2023-02-03T23:52:55.629Z,101299.75
2023-02-03T23:55:23.522Z,101298.75
2023-02-03T23:57:51.287Z,101293.28
